Aviation Digital Data Service (ADDS)

Output produced by METARs form (0039 UTC 26 July 2017)
found at http://aviationweather.gov/adds/metars/
 
UUWW 260030Z 12002MPS CAVOK 15/13 Q1010 R06/000070 NOSIG